sensor_id;sensor_type;location;lat;lon;timestamp;P1;durP1;ratioP1;P2;durP2;ratioP2
48651;SDS011;34442;52.362;-1.302;2023-02-15T00:01:05;8.15;;;4.18;;
48651;SDS011;34442;52.362;-1.302;2023-02-15T00:03:32;6.75;;;4.10;;
48651;SDS011;34442;52.362;-1.302;2023-02-15T00:05:57;8.30;;;4.25;;
48651;SDS011;34442;52.362;-1.302;2023-02-15T00:08:23;8.10;;;4.72;;
48651;SDS011;34442;52.362;-1.302;2023-02-15T00:10:48;9.10;;;5.57;;
48651;SDS011;34442;52.362;-1.302;2023-02-15T00:13:14;10.15;;;4.53;;
48651;SDS011;34442;52.362;-1.302;2023-02-15T00:15:39;7.60;;;4.45;;
48651;SDS011;34442;52.362;-1.302;2023-02-15T00:18:05;7.60;;;3.63;;
48651;SDS011;34442;52.362;-1.302;2023-02-15T00:20:30;7.38;;;3.95;;
48651;SDS011;34442;52.362;-1.302;2023-02-15T00:22:55;8.23;;;4.63;;
48651;SDS011;34442;52.362;-1.302;2023-02-15T00:25:21;7.57;;;4.32;;
48651;SDS011;34442;52.362;-1.302;2023-02-15T00:27:46;9.07;;;5.32;;
48651;SDS011;34442;52.362;-1.302;2023-02-15T00:30:11;9.40;;;5.25;;
48651;SDS011;34442;52.362;-1.302;2023-02-15T00:32:37;9.77;;;5.15;;
48651;SDS011;34442;52.362;-1.302;2023-02-15T00:35:03;9.35;;;4.68;;
48651;SDS011;34442;52.362;-1.302;2023-02-15T00:37:28;9.25;;;4.82;;
48651;SDS011;34442;52.362;-1.302;2023-02-15T00:39:54;9.15;;;5.07;;
48651;SDS011;34442;52.362;-1.302;2023-02-15T00:42:19;7.50;;;4.00;;
48651;SDS011;34442;52.362;-1.302;2023-02-15T00:44:44;9.75;;;5.35;;
48651;SDS011;34442;52.362;-1.302;2023-02-15T00:47:10;7.25;;;4.50;;
48651;SDS011;34442;52.362;-1.302;2023-02-15T00:49:35;7.40;;;4.63;;
48651;SDS011;34442;52.362;-1.302;2023-02-15T00:52:00;8.35;;;4.97;;
48651;SDS011;34442;52.362;-1.302;2023-02-15T00:54:26;8.00;;;5.28;;
48651;SDS011;34442;52.362;-1.302;2023-02-15T00:56:51;9.02;;;5.75;;
48651;SDS011;34442;52.362;-1.302;2023-02-15T00:59:16;8.93;;;4.90;;
48651;SDS011;34442;52.362;-1.302;2023-02-15T01:01:42;9.52;;;5.05;;
48651;SDS011;34442;52.362;-1.302;2023-02-15T01:04:08;10.20;;;6.45;;
48651;SDS011;34442;52.362;-1.302;2023-02-15T01:06:33;12.60;;;6.82;;
48651;SDS011;34442;52.362;-1.302;2023-02-15T01:08:58;14.50;;;8.82;;
48651;SDS011;34442;52.362;-1.302;2023-02-15T01:11:24;9.82;;;6.20;;
48651;SDS011;34442;52.362;-1.302;2023-02-15T01:13:53;9.80;;;5.75;;
48651;SDS011;34442;52.362;-1.302;2023-02-15T01:16:20;10.95;;;6.68;;
48651;SDS011;34442;52.362;-1.302;2023-02-15T01:18:46;11.65;;;7.22;;
48651;SDS011;34442;52.362;-1.302;2023-02-15T01:21:14;10.95;;;6.50;;
48651;SDS011;34442;52.362;-1.302;2023-02-15T01:23:41;10.93;;;6.82;;
48651;SDS011;34442;52.362;-1.302;2023-02-15T01:26:07;12.20;;;6.78;;
48651;SDS011;34442;52.362;-1.302;2023-02-15T01:28:34;12.88;;;6.80;;
48651;SDS011;34442;52.362;-1.302;2023-02-15T01:31:04;11.52;;;6.57;;
48651;SDS011;34442;52.362;-1.302;2023-02-15T01:33:31;12.10;;;6.32;;
48651;SDS011;34442;52.362;-1.302;2023-02-15T01:35:57;10.90;;;6.38;;
48651;SDS011;34442;52.362;-1.302;2023-02-15T01:38:23;9.95;;;6.13;;
48651;SDS011;34442;52.362;-1.302;2023-02-15T01:40:50;10.73;;;6.05;;
48651;SDS011;34442;52.362;-1.302;2023-02-15T01:43:17;9.38;;;5.95;;
48651;SDS011;34442;52.362;-1.302;2023-02-15T01:45:43;8.90;;;5.70;;
48651;SDS011;34442;52.362;-1.302;2023-02-15T01:48:20;9.45;;;5.60;;
48651;SDS011;34442;52.362;-1.302;2023-02-15T01:51:06;10.82;;;5.93;;
48651;SDS011;34442;52.362;-1.302;2023-02-15T01:53:33;10.55;;;5.47;;
48651;SDS011;34442;52.362;-1.302;2023-02-15T01:56:17;9.52;;;4.80;;
48651;SDS011;34442;52.362;-1.302;2023-02-15T01:58:46;8.82;;;4.88;;
48651;SDS011;34442;52.362;-1.302;2023-02-15T02:01:14;8.70;;;4.85;;
48651;SDS011;34442;52.362;-1.302;2023-02-15T02:03:52;9.05;;;5.22;;
48651;SDS011;34442;52.362;-1.302;2023-02-15T02:06:34;10.57;;;5.38;;
48651;SDS011;34442;52.362;-1.302;2023-02-15T02:09:03;13.35;;;7.53;;
48651;SDS011;34442;52.362;-1.302;2023-02-15T02:11:29;12.70;;;6.40;;
48651;SDS011;34442;52.362;-1.302;2023-02-15T02:13:54;8.82;;;5.40;;
48651;SDS011;34442;52.362;-1.302;2023-02-15T02:16:45;10.30;;;6.43;;
48651;SDS011;34442;52.362;-1.302;2023-02-15T02:27:47;9.00;;;5.43;;
48651;SDS011;34442;52.362;-1.302;2023-02-15T02:41:33;8.25;;;4.65;;
48651;SDS011;34442;52.362;-1.302;2023-02-15T02:46:57;10.00;;;5.40;;
48651;SDS011;34442;52.362;-1.302;2023-02-15T02:49:29;9.20;;;5.55;;
48651;SDS011;34442;52.362;-1.302;2023-02-15T02:52:00;9.45;;;5.65;;
48651;SDS011;34442;52.362;-1.302;2023-02-15T02:54:27;7.78;;;4.63;;
48651;SDS011;34442;52.362;-1.302;2023-02-15T02:56:53;11.80;;;6.32;;
48651;SDS011;34442;52.362;-1.302;2023-02-15T02:59:26;9.63;;;5.85;;
48651;SDS011;34442;52.362;-1.302;2023-02-15T03:02:04;8.93;;;5.22;;
48651;SDS011;34442;52.362;-1.302;2023-02-15T03:04:37;8.35;;;4.55;;
48651;SDS011;34442;52.362;-1.302;2023-02-15T03:07:07;10.35;;;4.80;;
48651;SDS011;34442;52.362;-1.302;2023-02-15T03:09:44;10.55;;;6.68;;
48651;SDS011;34442;52.362;-1.302;2023-02-15T03:12:16;13.35;;;7.30;;
48651;SDS011;34442;52.362;-1.302;2023-02-15T03:14:48;10.35;;;6.15;;
48651;SDS011;34442;52.362;-1.302;2023-02-15T03:17:18;8.32;;;5.22;;
48651;SDS011;34442;52.362;-1.302;2023-02-15T03:19:46;9.40;;;5.47;;
48651;SDS011;34442;52.362;-1.302;2023-02-15T03:22:18;12.90;;;6.88;;
48651;SDS011;34442;52.362;-1.302;2023-02-15T03:24:49;9.93;;;5.95;;
48651;SDS011;34442;52.362;-1.302;2023-02-15T03:27:22;9.88;;;6.00;;
48651;SDS011;34442;52.362;-1.302;2023-02-15T03:29:52;9.65;;;5.95;;
48651;SDS011;34442;52.362;-1.302;2023-02-15T03:32:20;12.80;;;7.25;;
48651;SDS011;34442;52.362;-1.302;2023-02-15T03:34:46;13.18;;;6.90;;
48651;SDS011;34442;52.362;-1.302;2023-02-15T03:43:30;10.23;;;5.22;;
48651;SDS011;34442;52.362;-1.302;2023-02-15T03:46:48;14.68;;;8.95;;
48651;SDS011;34442;52.362;-1.302;2023-02-15T03:49:17;11.63;;;6.30;;
48651;SDS011;34442;52.362;-1.302;2023-02-15T03:51:48;10.77;;;6.05;;
48651;SDS011;34442;52.362;-1.302;2023-02-15T03:57:06;13.82;;;7.78;;
48651;SDS011;34442;52.362;-1.302;2023-02-15T03:59:53;10.57;;;6.20;;
48651;SDS011;34442;52.362;-1.302;2023-02-15T04:05:12;12.13;;;6.47;;
48651;SDS011;34442;52.362;-1.302;2023-02-15T04:07:37;9.68;;;5.68;;
48651;SDS011;34442;52.362;-1.302;2023-02-15T04:10:03;12.88;;;6.65;;
48651;SDS011;34442;52.362;-1.302;2023-02-15T04:15:12;9.85;;;5.68;;
48651;SDS011;34442;52.362;-1.302;2023-02-15T04:17:56;7.45;;;4.45;;
48651;SDS011;34442;52.362;-1.302;2023-02-15T04:20:21;8.15;;;4.65;;
48651;SDS011;34442;52.362;-1.302;2023-02-15T04:23:05;8.32;;;4.50;;
48651;SDS011;34442;52.362;-1.302;2023-02-15T04:25:50;7.68;;;4.40;;
48651;SDS011;34442;52.362;-1.302;2023-02-15T04:28:15;8.32;;;4.75;;
48651;SDS011;34442;52.362;-1.302;2023-02-15T04:30:40;9.50;;;4.85;;
48651;SDS011;34442;52.362;-1.302;2023-02-15T04:33:06;8.23;;;4.38;;
48651;SDS011;34442;52.362;-1.302;2023-02-15T04:35:31;7.78;;;4.32;;
48651;SDS011;34442;52.362;-1.302;2023-02-15T04:37:58;9.25;;;4.13;;
48651;SDS011;34442;52.362;-1.302;2023-02-15T04:40:23;7.95;;;4.50;;
48651;SDS011;34442;52.362;-1.302;2023-02-15T04:42:49;8.13;;;4.55;;
48651;SDS011;34442;52.362;-1.302;2023-02-15T04:45:14;9.07;;;4.78;;
48651;SDS011;34442;52.362;-1.302;2023-02-15T04:47:40;10.32;;;5.20;;
48651;SDS011;34442;52.362;-1.302;2023-02-15T04:50:06;7.65;;;4.88;;
48651;SDS011;34442;52.362;-1.302;2023-02-15T04:52:32;8.55;;;4.85;;
48651;SDS011;34442;52.362;-1.302;2023-02-15T04:54:57;9.32;;;4.82;;
48651;SDS011;34442;52.362;-1.302;2023-02-15T04:57:23;8.45;;;4.97;;
48651;SDS011;34442;52.362;-1.302;2023-02-15T04:59:48;9.70;;;5.18;;
48651;SDS011;34442;52.362;-1.302;2023-02-15T05:02:13;9.77;;;5.35;;
48651;SDS011;34442;52.362;-1.302;2023-02-15T05:04:38;8.35;;;4.70;;
48651;SDS011;34442;52.362;-1.302;2023-02-15T05:07:04;9.55;;;5.63;;
48651;SDS011;34442;52.362;-1.302;2023-02-15T05:09:29;8.77;;;5.20;;
48651;SDS011;34442;52.362;-1.302;2023-02-15T05:11:55;9.27;;;5.53;;
48651;SDS011;34442;52.362;-1.302;2023-02-15T05:14:20;9.75;;;5.40;;
48651;SDS011;34442;52.362;-1.302;2023-02-15T05:16:46;9.85;;;5.18;;
48651;SDS011;34442;52.362;-1.302;2023-02-15T05:19:11;8.50;;;4.97;;
48651;SDS011;34442;52.362;-1.302;2023-02-15T05:21:36;8.95;;;5.20;;
48651;SDS011;34442;52.362;-1.302;2023-02-15T05:24:02;9.18;;;4.60;;
48651;SDS011;34442;52.362;-1.302;2023-02-15T05:26:47;9.00;;;5.18;;
48651;SDS011;34442;52.362;-1.302;2023-02-15T05:29:31;9.27;;;4.85;;
48651;SDS011;34442;52.362;-1.302;2023-02-15T05:31:56;9.35;;;4.50;;
48651;SDS011;34442;52.362;-1.302;2023-02-15T05:34:22;9.98;;;5.18;;
48651;SDS011;34442;52.362;-1.302;2023-02-15T05:36:47;8.85;;;4.43;;
48651;SDS011;34442;52.362;-1.302;2023-02-15T05:39:12;8.73;;;4.25;;
48651;SDS011;34442;52.362;-1.302;2023-02-15T05:41:38;13.23;;;7.07;;
48651;SDS011;34442;52.362;-1.302;2023-02-15T05:44:03;9.20;;;5.53;;
48651;SDS011;34442;52.362;-1.302;2023-02-15T05:46:29;11.30;;;5.85;;
48651;SDS011;34442;52.362;-1.302;2023-02-15T05:48:54;12.23;;;6.65;;
48651;SDS011;34442;52.362;-1.302;2023-02-15T05:51:19;9.38;;;5.45;;
48651;SDS011;34442;52.362;-1.302;2023-02-15T05:53:45;10.82;;;6.05;;
48651;SDS011;34442;52.362;-1.302;2023-02-15T05:56:10;11.88;;;6.15;;
48651;SDS011;34442;52.362;-1.302;2023-02-15T05:58:37;11.65;;;6.32;;
48651;SDS011;34442;52.362;-1.302;2023-02-15T06:01:11;9.80;;;5.97;;
48651;SDS011;34442;52.362;-1.302;2023-02-15T06:03:37;9.25;;;4.63;;
48651;SDS011;34442;52.362;-1.302;2023-02-15T06:06:02;10.38;;;5.30;;
48651;SDS011;34442;52.362;-1.302;2023-02-15T06:08:29;9.27;;;5.47;;
48651;SDS011;34442;52.362;-1.302;2023-02-15T06:10:55;8.38;;;5.03;;
48651;SDS011;34442;52.362;-1.302;2023-02-15T06:13:21;9.63;;;5.53;;
48651;SDS011;34442;52.362;-1.302;2023-02-15T06:15:46;9.63;;;4.43;;
48651;SDS011;34442;52.362;-1.302;2023-02-15T06:18:11;10.18;;;5.30;;
48651;SDS011;34442;52.362;-1.302;2023-02-15T06:20:37;9.75;;;4.78;;
48651;SDS011;34442;52.362;-1.302;2023-02-15T06:23:02;9.35;;;4.93;;
48651;SDS011;34442;52.362;-1.302;2023-02-15T06:25:28;9.73;;;5.10;;
48651;SDS011;34442;52.362;-1.302;2023-02-15T06:27:53;9.38;;;4.80;;
48651;SDS011;34442;52.362;-1.302;2023-02-15T06:30:19;9.55;;;5.07;;
48651;SDS011;34442;52.362;-1.302;2023-02-15T06:32:44;11.25;;;4.95;;
48651;SDS011;34442;52.362;-1.302;2023-02-15T06:35:10;8.82;;;5.00;;
48651;SDS011;34442;52.362;-1.302;2023-02-15T06:37:36;7.95;;;4.88;;
48651;SDS011;34442;52.362;-1.302;2023-02-15T06:40:02;10.57;;;5.18;;
48651;SDS011;34442;52.362;-1.302;2023-02-15T06:42:29;9.85;;;5.00;;
48651;SDS011;34442;52.362;-1.302;2023-02-15T06:44:54;10.07;;;5.78;;
48651;SDS011;34442;52.362;-1.302;2023-02-15T06:47:19;9.48;;;5.25;;
48651;SDS011;34442;52.362;-1.302;2023-02-15T06:49:45;9.40;;;5.35;;
48651;SDS011;34442;52.362;-1.302;2023-02-15T06:52:10;9.13;;;5.22;;
48651;SDS011;34442;52.362;-1.302;2023-02-15T06:54:35;9.30;;;4.97;;
48651;SDS011;34442;52.362;-1.302;2023-02-15T06:57:01;8.85;;;4.72;;
48651;SDS011;34442;52.362;-1.302;2023-02-15T06:59:26;7.90;;;4.82;;
48651;SDS011;34442;52.362;-1.302;2023-02-15T07:01:52;10.05;;;5.57;;
48651;SDS011;34442;52.362;-1.302;2023-02-15T07:04:17;10.38;;;5.60;;
48651;SDS011;34442;52.362;-1.302;2023-02-15T07:06:42;10.95;;;5.63;;
48651;SDS011;34442;52.362;-1.302;2023-02-15T07:09:08;11.60;;;6.55;;
48651;SDS011;34442;52.362;-1.302;2023-02-15T07:11:33;10.07;;;5.88;;
48651;SDS011;34442;52.362;-1.302;2023-02-15T07:14:17;11.95;;;6.10;;
48651;SDS011;34442;52.362;-1.302;2023-02-15T07:16:43;11.30;;;6.30;;
48651;SDS011;34442;52.362;-1.302;2023-02-15T07:19:08;11.38;;;5.95;;
48651;SDS011;34442;52.362;-1.302;2023-02-15T07:21:34;12.18;;;6.30;;
48651;SDS011;34442;52.362;-1.302;2023-02-15T07:24:00;10.15;;;5.35;;
48651;SDS011;34442;52.362;-1.302;2023-02-15T07:26:26;8.88;;;5.13;;
48651;SDS011;34442;52.362;-1.302;2023-02-15T07:28:52;9.77;;;5.88;;
48651;SDS011;34442;52.362;-1.302;2023-02-15T07:31:17;10.10;;;5.13;;
48651;SDS011;34442;52.362;-1.302;2023-02-15T07:33:43;7.55;;;4.53;;
48651;SDS011;34442;52.362;-1.302;2023-02-15T07:36:09;10.77;;;6.07;;
48651;SDS011;34442;52.362;-1.302;2023-02-15T07:38:37;10.75;;;5.85;;
48651;SDS011;34442;52.362;-1.302;2023-02-15T07:41:05;12.95;;;6.60;;
48651;SDS011;34442;52.362;-1.302;2023-02-15T07:43:37;13.80;;;7.47;;
48651;SDS011;34442;52.362;-1.302;2023-02-15T07:46:08;12.15;;;5.75;;
48651;SDS011;34442;52.362;-1.302;2023-02-15T07:48:36;11.45;;;5.75;;
48651;SDS011;34442;52.362;-1.302;2023-02-15T07:51:04;11.85;;;6.55;;
48651;SDS011;34442;52.362;-1.302;2023-02-15T07:53:30;15.85;;;9.15;;
48651;SDS011;34442;52.362;-1.302;2023-02-15T07:55:59;15.00;;;8.68;;
48651;SDS011;34442;52.362;-1.302;2023-02-15T07:58:26;16.33;;;8.80;;
48651;SDS011;34442;52.362;-1.302;2023-02-15T08:01:11;14.45;;;8.48;;
48651;SDS011;34442;52.362;-1.302;2023-02-15T08:03:37;12.20;;;6.82;;
48651;SDS011;34442;52.362;-1.302;2023-02-15T08:06:03;11.68;;;6.43;;
48651;SDS011;34442;52.362;-1.302;2023-02-15T08:08:28;14.02;;;7.72;;
48651;SDS011;34442;52.362;-1.302;2023-02-15T08:13:57;16.40;;;8.63;;
48651;SDS011;34442;52.362;-1.302;2023-02-15T08:16:37;16.60;;;8.38;;
48651;SDS011;34442;52.362;-1.302;2023-02-15T08:19:09;15.10;;;9.07;;
48651;SDS011;34442;52.362;-1.302;2023-02-15T08:21:39;15.02;;;7.47;;
48651;SDS011;34442;52.362;-1.302;2023-02-15T08:24:09;14.20;;;7.72;;
48651;SDS011;34442;52.362;-1.302;2023-02-15T08:26:37;15.27;;;7.78;;
48651;SDS011;34442;52.362;-1.302;2023-02-15T08:29:04;12.55;;;7.95;;
48651;SDS011;34442;52.362;-1.302;2023-02-15T08:31:30;14.20;;;8.45;;
48651;SDS011;34442;52.362;-1.302;2023-02-15T08:33:55;16.92;;;10.68;;
48651;SDS011;34442;52.362;-1.302;2023-02-15T08:36:23;16.30;;;8.95;;
48651;SDS011;34442;52.362;-1.302;2023-02-15T08:38:52;21.00;;;12.02;;
48651;SDS011;34442;52.362;-1.302;2023-02-15T08:41:23;15.68;;;7.85;;
48651;SDS011;34442;52.362;-1.302;2023-02-15T08:43:54;15.85;;;7.95;;
48651;SDS011;34442;52.362;-1.302;2023-02-15T08:46:22;11.52;;;6.00;;
48651;SDS011;34442;52.362;-1.302;2023-02-15T08:48:48;11.60;;;6.78;;
48651;SDS011;34442;52.362;-1.302;2023-02-15T08:51:15;10.93;;;6.30;;
48651;SDS011;34442;52.362;-1.302;2023-02-15T08:53:43;11.98;;;6.70;;
48651;SDS011;34442;52.362;-1.302;2023-02-15T08:56:14;10.95;;;6.20;;
48651;SDS011;34442;52.362;-1.302;2023-02-15T08:58:40;10.90;;;5.93;;
48651;SDS011;34442;52.362;-1.302;2023-02-15T09:01:11;10.95;;;6.43;;
48651;SDS011;34442;52.362;-1.302;2023-02-15T09:03:46;11.00;;;5.68;;
48651;SDS011;34442;52.362;-1.302;2023-02-15T09:06:12;12.52;;;7.40;;
48651;SDS011;34442;52.362;-1.302;2023-02-15T09:08:39;17.48;;;9.25;;
48651;SDS011;34442;52.362;-1.302;2023-02-15T09:11:08;11.57;;;6.10;;
48651;SDS011;34442;52.362;-1.302;2023-02-15T09:13:35;12.77;;;6.97;;
48651;SDS011;34442;52.362;-1.302;2023-02-15T09:16:02;16.95;;;10.20;;
48651;SDS011;34442;52.362;-1.302;2023-02-15T09:18:32;16.30;;;8.95;;
48651;SDS011;34442;52.362;-1.302;2023-02-15T09:21:04;13.25;;;8.45;;
48651;SDS011;34442;52.362;-1.302;2023-02-15T09:23:38;18.48;;;10.65;;
48651;SDS011;34442;52.362;-1.302;2023-02-15T09:26:05;18.88;;;11.52;;
48651;SDS011;34442;52.362;-1.302;2023-02-15T09:28:32;21.55;;;13.30;;
48651;SDS011;34442;52.362;-1.302;2023-02-15T09:33:55;25.05;;;14.80;;
48651;SDS011;34442;52.362;-1.302;2023-02-15T09:36:24;20.25;;;12.45;;
48651;SDS011;34442;52.362;-1.302;2023-02-15T09:38:54;22.63;;;14.02;;
48651;SDS011;34442;52.362;-1.302;2023-02-15T09:44:31;18.05;;;9.80;;
48651;SDS011;34442;52.362;-1.302;2023-02-15T09:50:03;27.42;;;15.57;;
48651;SDS011;34442;52.362;-1.302;2023-02-15T10:01:09;20.42;;;11.35;;
48651;SDS011;34442;52.362;-1.302;2023-02-15T10:09:26;15.15;;;9.20;;
48651;SDS011;34442;52.362;-1.302;2023-02-15T10:17:48;18.95;;;11.55;;
48651;SDS011;34442;52.362;-1.302;2023-02-15T10:28:18;18.90;;;12.70;;
48651;SDS011;34442;52.362;-1.302;2023-02-15T10:30:48;19.98;;;12.27;;
48651;SDS011;34442;52.362;-1.302;2023-02-15T10:36:00;19.73;;;11.90;;
48651;SDS011;34442;52.362;-1.302;2023-02-15T10:41:15;16.23;;;8.15;;
48651;SDS011;34442;52.362;-1.302;2023-02-15T10:43:59;14.20;;;8.38;;
48651;SDS011;34442;52.362;-1.302;2023-02-15T10:47:06;12.55;;;7.40;;
48651;SDS011;34442;52.362;-1.302;2023-02-15T10:52:54;14.55;;;7.30;;
48651;SDS011;34442;52.362;-1.302;2023-02-15T11:06:34;8.68;;;5.43;;
48651;SDS011;34442;52.362;-1.302;2023-02-15T11:09:03;11.45;;;6.55;;
48651;SDS011;34442;52.362;-1.302;2023-02-15T11:11:38;9.82;;;4.95;;
48651;SDS011;34442;52.362;-1.302;2023-02-15T11:14:14;9.27;;;5.68;;
48651;SDS011;34442;52.362;-1.302;2023-02-15T11:16:46;9.02;;;4.25;;
48651;SDS011;34442;52.362;-1.302;2023-02-15T11:21:55;12.10;;;6.82;;
48651;SDS011;34442;52.362;-1.302;2023-02-15T11:24:25;11.85;;;6.93;;
48651;SDS011;34442;52.362;-1.302;2023-02-15T11:26:55;9.23;;;5.25;;
48651;SDS011;34442;52.362;-1.302;2023-02-15T11:29:26;8.05;;;4.60;;
48651;SDS011;34442;52.362;-1.302;2023-02-15T11:31:58;8.05;;;4.35;;
48651;SDS011;34442;52.362;-1.302;2023-02-15T11:34:29;8.40;;;4.97;;
48651;SDS011;34442;52.362;-1.302;2023-02-15T11:37:00;7.97;;;4.55;;
48651;SDS011;34442;52.362;-1.302;2023-02-15T11:39:31;6.97;;;3.95;;
48651;SDS011;34442;52.362;-1.302;2023-02-15T11:42:03;9.32;;;4.75;;
48651;SDS011;34442;52.362;-1.302;2023-02-15T11:44:34;13.75;;;7.85;;
48651;SDS011;34442;52.362;-1.302;2023-02-15T11:47:08;9.85;;;5.90;;
48651;SDS011;34442;52.362;-1.302;2023-02-15T11:49:37;9.18;;;4.57;;
48651;SDS011;34442;52.362;-1.302;2023-02-15T11:52:07;8.75;;;4.40;;
48651;SDS011;34442;52.362;-1.302;2023-02-15T11:54:39;7.90;;;4.13;;
48651;SDS011;34442;52.362;-1.302;2023-02-15T12:00:14;9.50;;;4.50;;
48651;SDS011;34442;52.362;-1.302;2023-02-15T12:02:50;7.30;;;4.47;;
48651;SDS011;34442;52.362;-1.302;2023-02-15T12:05:19;9.05;;;4.95;;
48651;SDS011;34442;52.362;-1.302;2023-02-15T12:07:55;13.27;;;7.90;;
48651;SDS011;34442;52.362;-1.302;2023-02-15T12:10:29;10.05;;;5.32;;
48651;SDS011;34442;52.362;-1.302;2023-02-15T12:15:45;8.68;;;5.35;;
48651;SDS011;34442;52.362;-1.302;2023-02-15T12:21:07;9.68;;;5.57;;
48651;SDS011;34442;52.362;-1.302;2023-02-15T12:23:39;9.80;;;6.03;;
48651;SDS011;34442;52.362;-1.302;2023-02-15T12:26:12;11.70;;;5.93;;
48651;SDS011;34442;52.362;-1.302;2023-02-15T12:28:39;11.10;;;5.72;;
48651;SDS011;34442;52.362;-1.302;2023-02-15T12:31:17;7.93;;;5.38;;
48651;SDS011;34442;52.362;-1.302;2023-02-15T12:33:46;8.95;;;5.45;;
48651;SDS011;34442;52.362;-1.302;2023-02-15T12:36:17;8.20;;;4.93;;
48651;SDS011;34442;52.362;-1.302;2023-02-15T12:39:05;9.30;;;5.35;;
48651;SDS011;34442;52.362;-1.302;2023-02-15T12:41:31;10.73;;;6.03;;
48651;SDS011;34442;52.362;-1.302;2023-02-15T12:46:31;7.90;;;4.55;;
48651;SDS011;34442;52.362;-1.302;2023-02-15T12:56:55;7.43;;;4.38;;
48651;SDS011;34442;52.362;-1.302;2023-02-15T12:59:22;6.38;;;3.42;;
48651;SDS011;34442;52.362;-1.302;2023-02-15T13:01:48;7.82;;;4.35;;
48651;SDS011;34442;52.362;-1.302;2023-02-15T13:06:58;8.48;;;5.15;;
48651;SDS011;34442;52.362;-1.302;2023-02-15T13:11:53;8.40;;;4.82;;
48651;SDS011;34442;52.362;-1.302;2023-02-15T13:14:19;6.55;;;3.60;;
48651;SDS011;34442;52.362;-1.302;2023-02-15T13:16:48;9.32;;;5.72;;
48651;SDS011;34442;52.362;-1.302;2023-02-15T13:19:22;6.65;;;4.15;;
48651;SDS011;34442;52.362;-1.302;2023-02-15T13:21:56;6.78;;;4.07;;
48651;SDS011;34442;52.362;-1.302;2023-02-15T13:24:26;9.43;;;5.32;;
48651;SDS011;34442;52.362;-1.302;2023-02-15T13:26:55;7.45;;;4.68;;
48651;SDS011;34442;52.362;-1.302;2023-02-15T13:29:27;9.80;;;5.75;;
48651;SDS011;34442;52.362;-1.302;2023-02-15T13:31:55;8.13;;;5.00;;
48651;SDS011;34442;52.362;-1.302;2023-02-15T13:34:28;7.35;;;4.30;;
48651;SDS011;34442;52.362;-1.302;2023-02-15T13:37:05;6.85;;;4.35;;
48651;SDS011;34442;52.362;-1.302;2023-02-15T13:39:42;10.75;;;4.95;;
48651;SDS011;34442;52.362;-1.302;2023-02-15T13:42:25;6.53;;;3.35;;
48651;SDS011;34442;52.362;-1.302;2023-02-15T13:53:28;8.10;;;3.80;;
48651;SDS011;34442;52.362;-1.302;2023-02-15T13:56:16;6.78;;;3.38;;
48651;SDS011;34442;52.362;-1.302;2023-02-15T14:07:02;7.45;;;4.35;;
48651;SDS011;34442;52.362;-1.302;2023-02-15T14:09:46;5.75;;;3.20;;
48651;SDS011;34442;52.362;-1.302;2023-02-15T14:12:32;5.43;;;3.30;;
48651;SDS011;34442;52.362;-1.302;2023-02-15T14:31:36;4.82;;;2.50;;
48651;SDS011;34442;52.362;-1.302;2023-02-15T14:34:07;3.85;;;2.17;;
48651;SDS011;34442;52.362;-1.302;2023-02-15T14:36:58;4.55;;;2.30;;
48651;SDS011;34442;52.362;-1.302;2023-02-15T14:48:02;4.85;;;2.50;;
48651;SDS011;34442;52.362;-1.302;2023-02-15T14:53:15;3.90;;;2.00;;
48651;SDS011;34442;52.362;-1.302;2023-02-15T14:55:46;3.55;;;1.80;;
48651;SDS011;34442;52.362;-1.302;2023-02-15T14:58:12;3.28;;;1.70;;
48651;SDS011;34442;52.362;-1.302;2023-02-15T15:00:39;6.03;;;2.58;;
48651;SDS011;34442;52.362;-1.302;2023-02-15T15:03:10;4.13;;;2.75;;
48651;SDS011;34442;52.362;-1.302;2023-02-15T15:05:52;5.28;;;3.05;;
48651;SDS011;34442;52.362;-1.302;2023-02-15T15:08:28;9.38;;;4.13;;
48651;SDS011;34442;52.362;-1.302;2023-02-15T15:11:36;7.10;;;3.53;;
48651;SDS011;34442;52.362;-1.302;2023-02-15T15:13:55;7.60;;;3.50;;
48651;SDS011;34442;52.362;-1.302;2023-02-15T15:16:28;5.70;;;3.17;;
48651;SDS011;34442;52.362;-1.302;2023-02-15T15:18:54;8.25;;;4.32;;
48651;SDS011;34442;52.362;-1.302;2023-02-15T15:33:02;6.28;;;3.13;;
48651;SDS011;34442;52.362;-1.302;2023-02-15T15:43:24;5.45;;;3.08;;
48651;SDS011;34442;52.362;-1.302;2023-02-15T15:46:10;5.50;;;3.17;;
48651;SDS011;34442;52.362;-1.302;2023-02-15T15:48:47;7.10;;;4.13;;
48651;SDS011;34442;52.362;-1.302;2023-02-15T15:51:34;6.10;;;4.03;;
48651;SDS011;34442;52.362;-1.302;2023-02-15T15:53:59;9.40;;;4.70;;
48651;SDS011;34442;52.362;-1.302;2023-02-15T15:56:28;7.22;;;3.65;;
48651;SDS011;34442;52.362;-1.302;2023-02-15T15:59:01;6.53;;;3.20;;
48651;SDS011;34442;52.362;-1.302;2023-02-15T16:01:40;4.50;;;2.20;;
48651;SDS011;34442;52.362;-1.302;2023-02-15T16:04:22;5.18;;;3.03;;
48651;SDS011;34442;52.362;-1.302;2023-02-15T16:06:49;6.20;;;3.08;;
48651;SDS011;34442;52.362;-1.302;2023-02-15T16:09:19;5.40;;;2.67;;
48651;SDS011;34442;52.362;-1.302;2023-02-15T16:11:50;4.40;;;2.45;;
48651;SDS011;34442;52.362;-1.302;2023-02-15T16:14:37;5.75;;;2.80;;
48651;SDS011;34442;52.362;-1.302;2023-02-15T16:17:05;7.05;;;3.20;;
48651;SDS011;34442;52.362;-1.302;2023-02-15T16:19:35;4.57;;;2.50;;
48651;SDS011;34442;52.362;-1.302;2023-02-15T16:22:03;5.88;;;2.22;;
48651;SDS011;34442;52.362;-1.302;2023-02-15T16:27:38;5.25;;;2.65;;
48651;SDS011;34442;52.362;-1.302;2023-02-15T16:35:35;5.03;;;3.00;;
48651;SDS011;34442;52.362;-1.302;2023-02-15T16:38:03;4.93;;;2.47;;
48651;SDS011;34442;52.362;-1.302;2023-02-15T16:40:40;5.70;;;2.40;;
48651;SDS011;34442;52.362;-1.302;2023-02-15T16:43:18;8.73;;;3.15;;
48651;SDS011;34442;52.362;-1.302;2023-02-15T16:45:47;4.43;;;2.88;;
48651;SDS011;34442;52.362;-1.302;2023-02-15T16:48:18;8.68;;;4.10;;
48651;SDS011;34442;52.362;-1.302;2023-02-15T16:50:48;6.28;;;2.60;;
48651;SDS011;34442;52.362;-1.302;2023-02-15T16:53:19;7.13;;;3.40;;
48651;SDS011;34442;52.362;-1.302;2023-02-15T16:55:49;5.60;;;3.05;;
48651;SDS011;34442;52.362;-1.302;2023-02-15T16:58:17;4.78;;;2.75;;
48651;SDS011;34442;52.362;-1.302;2023-02-15T17:00:48;7.22;;;3.97;;
48651;SDS011;34442;52.362;-1.302;2023-02-15T17:08:06;5.85;;;2.85;;
48651;SDS011;34442;52.362;-1.302;2023-02-15T17:13:39;4.80;;;2.40;;
48651;SDS011;34442;52.362;-1.302;2023-02-15T17:16:28;7.10;;;3.55;;
48651;SDS011;34442;52.362;-1.302;2023-02-15T17:18:57;4.97;;;2.83;;
48651;SDS011;34442;52.362;-1.302;2023-02-15T17:21:31;5.20;;;3.08;;
48651;SDS011;34442;52.362;-1.302;2023-02-15T17:24:02;4.78;;;2.67;;
48651;SDS011;34442;52.362;-1.302;2023-02-15T17:26:30;8.90;;;3.85;;
48651;SDS011;34442;52.362;-1.302;2023-02-15T17:28:59;5.00;;;2.78;;
48651;SDS011;34442;52.362;-1.302;2023-02-15T17:31:31;4.80;;;2.42;;
48651;SDS011;34442;52.362;-1.302;2023-02-15T17:34:01;5.90;;;2.83;;
48651;SDS011;34442;52.362;-1.302;2023-02-15T17:36:28;4.82;;;2.10;;
48651;SDS011;34442;52.362;-1.302;2023-02-15T17:41:29;4.65;;;2.90;;
48651;SDS011;34442;52.362;-1.302;2023-02-15T17:43:57;4.30;;;2.38;;
48651;SDS011;34442;52.362;-1.302;2023-02-15T17:46:23;5.55;;;2.65;;
48651;SDS011;34442;52.362;-1.302;2023-02-15T17:48:51;5.53;;;2.13;;
48651;SDS011;34442;52.362;-1.302;2023-02-15T17:51:19;4.90;;;2.20;;
48651;SDS011;34442;52.362;-1.302;2023-02-15T17:53:45;4.10;;;2.38;;
48651;SDS011;34442;52.362;-1.302;2023-02-15T17:56:31;4.90;;;2.55;;
48651;SDS011;34442;52.362;-1.302;2023-02-15T17:58:57;4.80;;;2.53;;
48651;SDS011;34442;52.362;-1.302;2023-02-15T18:01:22;4.57;;;2.78;;
48651;SDS011;34442;52.362;-1.302;2023-02-15T18:07:20;4.90;;;3.33;;
48651;SDS011;34442;52.362;-1.302;2023-02-15T18:10:37;5.97;;;2.53;;
48651;SDS011;34442;52.362;-1.302;2023-02-15T18:13:14;5.03;;;3.05;;
48651;SDS011;34442;52.362;-1.302;2023-02-15T18:15:39;4.90;;;2.88;;